sensor_id;sensor_type;location;lat;lon;timestamp;P1;durP1;ratioP1;P2;durP2;ratioP2
10315;SDS011;5203;48.976;8.306;2022-12-28T00:01:20;10.47;;;7.30;;
10315;SDS011;5203;48.976;8.306;2022-12-28T00:04:04;9.10;;;7.83;;
10315;SDS011;5203;48.976;8.306;2022-12-28T00:06:49;11.27;;;9.20;;
10315;SDS011;5203;48.976;8.306;2022-12-28T00:09:19;8.33;;;7.50;;
10315;SDS011;5203;48.976;8.306;2022-12-28T00:11:45;9.27;;;8.23;;
10315;SDS011;5203;48.976;8.306;2022-12-28T00:14:27;9.50;;;7.30;;
10315;SDS011;5203;48.976;8.306;2022-12-28T00:17:16;10.10;;;8.23;;
10315;SDS011;5203;48.976;8.306;2022-12-28T00:19:45;7.93;;;6.83;;
10315;SDS011;5203;48.976;8.306;2022-12-28T00:22:17;8.63;;;7.07;;
10315;SDS011;5203;48.976;8.306;2022-12-28T00:24:46;10.57;;;7.90;;
10315;SDS011;5203;48.976;8.306;2022-12-28T00:27:18;12.30;;;8.60;;
10315;SDS011;5203;48.976;8.306;2022-12-28T00:29:44;8.47;;;7.23;;
10315;SDS011;5203;48.976;8.306;2022-12-28T00:32:13;10.47;;;7.77;;
10315;SDS011;5203;48.976;8.306;2022-12-28T00:34:46;15.17;;;8.50;;
10315;SDS011;5203;48.976;8.306;2022-12-28T00:37:30;8.90;;;6.30;;
10315;SDS011;5203;48.976;8.306;2022-12-28T00:40:15;10.87;;;6.43;;
10315;SDS011;5203;48.976;8.306;2022-12-28T00:42:50;9.50;;;6.77;;
10315;SDS011;5203;48.976;8.306;2022-12-28T00:45:59;7.53;;;5.97;;
10315;SDS011;5203;48.976;8.306;2022-12-28T00:48:44;9.80;;;6.50;;
10315;SDS011;5203;48.976;8.306;2022-12-28T00:51:39;7.97;;;6.07;;
10315;SDS011;5203;48.976;8.306;2022-12-28T00:54:12;7.87;;;5.43;;
10315;SDS011;5203;48.976;8.306;2022-12-28T00:59:44;6.37;;;5.77;;
10315;SDS011;5203;48.976;8.306;2022-12-28T01:02:16;6.20;;;5.60;;
10315;SDS011;5203;48.976;8.306;2022-12-28T01:04:53;6.37;;;5.70;;
10315;SDS011;5203;48.976;8.306;2022-12-28T01:07:28;6.20;;;5.53;;
10315;SDS011;5203;48.976;8.306;2022-12-28T01:09:56;6.73;;;5.63;;
10315;SDS011;5203;48.976;8.306;2022-12-28T01:12:27;5.53;;;4.63;;
10315;SDS011;5203;48.976;8.306;2022-12-28T01:14:55;7.03;;;5.50;;
10315;SDS011;5203;48.976;8.306;2022-12-28T01:17:23;5.43;;;4.93;;
10315;SDS011;5203;48.976;8.306;2022-12-28T01:19:56;5.87;;;4.90;;
10315;SDS011;5203;48.976;8.306;2022-12-28T01:22:37;5.67;;;5.17;;
10315;SDS011;5203;48.976;8.306;2022-12-28T01:25:09;8.37;;;5.93;;
10315;SDS011;5203;48.976;8.306;2022-12-28T01:27:49;6.07;;;5.17;;
10315;SDS011;5203;48.976;8.306;2022-12-28T01:30:51;5.63;;;5.03;;
10315;SDS011;5203;48.976;8.306;2022-12-28T01:33:31;9.07;;;5.40;;
10315;SDS011;5203;48.976;8.306;2022-12-28T01:36:03;8.40;;;5.17;;
10315;SDS011;5203;48.976;8.306;2022-12-28T01:38:43;6.50;;;5.53;;
10315;SDS011;5203;48.976;8.306;2022-12-28T01:41:22;5.87;;;5.33;;
10315;SDS011;5203;48.976;8.306;2022-12-28T01:46:33;5.07;;;4.57;;
10315;SDS011;5203;48.976;8.306;2022-12-28T01:54:44;5.17;;;4.60;;
10315;SDS011;5203;48.976;8.306;2022-12-28T01:57:20;5.50;;;5.00;;
10315;SDS011;5203;48.976;8.306;2022-12-28T02:00:00;5.17;;;4.67;;
10315;SDS011;5203;48.976;8.306;2022-12-28T02:02:42;6.53;;;5.50;;
10315;SDS011;5203;48.976;8.306;2022-12-28T02:05:23;5.27;;;4.77;;
10315;SDS011;5203;48.976;8.306;2022-12-28T02:08:04;7.03;;;5.50;;
10315;SDS011;5203;48.976;8.306;2022-12-28T02:10:34;7.00;;;5.67;;
10315;SDS011;5203;48.976;8.306;2022-12-28T02:13:07;6.07;;;4.83;;
10315;SDS011;5203;48.976;8.306;2022-12-28T02:15:37;6.37;;;5.43;;
10315;SDS011;5203;48.976;8.306;2022-12-28T02:18:22;5.73;;;5.10;;
10315;SDS011;5203;48.976;8.306;2022-12-28T02:40:29;6.13;;;5.33;;
10315;SDS011;5203;48.976;8.306;2022-12-28T02:43:06;5.60;;;5.10;;
10315;SDS011;5203;48.976;8.306;2022-12-28T02:48:23;4.80;;;4.30;;
10315;SDS011;5203;48.976;8.306;2022-12-28T02:54:41;5.10;;;4.60;;
10315;SDS011;5203;48.976;8.306;2022-12-28T02:57:43;4.67;;;4.27;;
10315;SDS011;5203;48.976;8.306;2022-12-28T03:00:12;4.63;;;3.87;;
10315;SDS011;5203;48.976;8.306;2022-12-28T03:02:59;4.67;;;4.17;;
10315;SDS011;5203;48.976;8.306;2022-12-28T03:06:26;4.27;;;3.87;;
10315;SDS011;5203;48.976;8.306;2022-12-28T03:09:14;3.47;;;3.17;;
10315;SDS011;5203;48.976;8.306;2022-12-28T03:12:19;3.23;;;2.80;;
10315;SDS011;5203;48.976;8.306;2022-12-28T03:14:52;3.80;;;3.20;;
10315;SDS011;5203;48.976;8.306;2022-12-28T03:17:28;3.13;;;2.83;;
10315;SDS011;5203;48.976;8.306;2022-12-28T03:20:15;2.57;;;2.37;;
10315;SDS011;5203;48.976;8.306;2022-12-28T03:23:12;2.53;;;2.33;;
10315;SDS011;5203;48.976;8.306;2022-12-28T03:26:06;2.40;;;2.00;;
10315;SDS011;5203;48.976;8.306;2022-12-28T03:28:56;2.30;;;2.10;;
10315;SDS011;5203;48.976;8.306;2022-12-28T03:31:43;2.43;;;1.70;;
10315;SDS011;5203;48.976;8.306;2022-12-28T03:34:09;1.77;;;1.67;;
10315;SDS011;5203;48.976;8.306;2022-12-28T03:39:50;1.50;;;1.40;;
10315;SDS011;5203;48.976;8.306;2022-12-28T03:45:11;1.70;;;1.60;;
10315;SDS011;5203;48.976;8.306;2022-12-28T03:47:46;2.10;;;1.50;;
10315;SDS011;5203;48.976;8.306;2022-12-28T03:50:35;2.73;;;1.60;;
10315;SDS011;5203;48.976;8.306;2022-12-28T03:53:14;2.50;;;1.90;;
10315;SDS011;5203;48.976;8.306;2022-12-28T03:55:42;1.70;;;1.50;;
10315;SDS011;5203;48.976;8.306;2022-12-28T03:58:11;1.70;;;1.60;;
10315;SDS011;5203;48.976;8.306;2022-12-28T04:00:40;1.87;;;1.50;;
10315;SDS011;5203;48.976;8.306;2022-12-28T04:03:10;2.80;;;1.70;;
10315;SDS011;5203;48.976;8.306;2022-12-28T04:05:36;2.30;;;1.60;;
10315;SDS011;5203;48.976;8.306;2022-12-28T04:08:10;1.63;;;1.50;;
10315;SDS011;5203;48.976;8.306;2022-12-28T04:10:42;1.53;;;1.43;;
10315;SDS011;5203;48.976;8.306;2022-12-28T04:13:09;2.60;;;1.70;;
10315;SDS011;5203;48.976;8.306;2022-12-28T04:15:35;1.97;;;1.67;;
10315;SDS011;5203;48.976;8.306;2022-12-28T04:18:07;3.53;;;1.57;;
10315;SDS011;5203;48.976;8.306;2022-12-28T04:20:33;1.87;;;1.47;;
10315;SDS011;5203;48.976;8.306;2022-12-28T04:22:59;1.90;;;1.50;;
10315;SDS011;5203;48.976;8.306;2022-12-28T04:25:43;4.50;;;1.67;;
10315;SDS011;5203;48.976;8.306;2022-12-28T04:28:19;2.27;;;1.70;;
10315;SDS011;5203;48.976;8.306;2022-12-28T04:30:49;1.70;;;1.60;;
10315;SDS011;5203;48.976;8.306;2022-12-28T04:33:15;1.50;;;1.40;;
10315;SDS011;5203;48.976;8.306;2022-12-28T04:35:48;1.47;;;1.37;;
10315;SDS011;5203;48.976;8.306;2022-12-28T04:38:17;2.57;;;1.50;;
10315;SDS011;5203;48.976;8.306;2022-12-28T04:40:44;1.60;;;1.50;;
10315;SDS011;5203;48.976;8.306;2022-12-28T04:43:11;2.17;;;1.70;;
10315;SDS011;5203;48.976;8.306;2022-12-28T04:45:39;2.37;;;1.70;;
10315;SDS011;5203;48.976;8.306;2022-12-28T04:48:17;4.97;;;1.73;;
10315;SDS011;5203;48.976;8.306;2022-12-28T04:50:46;2.00;;;1.67;;
10315;SDS011;5203;48.976;8.306;2022-12-28T04:53:17;2.87;;;1.67;;
10315;SDS011;5203;48.976;8.306;2022-12-28T04:55:51;1.37;;;1.30;;
10315;SDS011;5203;48.976;8.306;2022-12-28T04:58:19;2.57;;;1.57;;
10315;SDS011;5203;48.976;8.306;2022-12-28T05:00:45;2.77;;;1.53;;
10315;SDS011;5203;48.976;8.306;2022-12-28T05:03:10;1.67;;;1.40;;
10315;SDS011;5203;48.976;8.306;2022-12-28T05:05:41;1.50;;;1.40;;
10315;SDS011;5203;48.976;8.306;2022-12-28T05:08:20;1.30;;;1.30;;
10315;SDS011;5203;48.976;8.306;2022-12-28T05:10:55;1.57;;;1.47;;
10315;SDS011;5203;48.976;8.306;2022-12-28T05:13:35;2.10;;;1.50;;
10315;SDS011;5203;48.976;8.306;2022-12-28T05:16:25;1.60;;;1.30;;
10315;SDS011;5203;48.976;8.306;2022-12-28T05:18:53;2.97;;;1.47;;
10315;SDS011;5203;48.976;8.306;2022-12-28T05:21:38;1.60;;;1.50;;
10315;SDS011;5203;48.976;8.306;2022-12-28T05:24:24;2.73;;;1.60;;
10315;SDS011;5203;48.976;8.306;2022-12-28T05:26:59;2.10;;;1.43;;
10315;SDS011;5203;48.976;8.306;2022-12-28T05:29:36;2.03;;;1.40;;
10315;SDS011;5203;48.976;8.306;2022-12-28T05:32:02;1.90;;;1.50;;
10315;SDS011;5203;48.976;8.306;2022-12-28T05:34:29;2.67;;;1.30;;
10315;SDS011;5203;48.976;8.306;2022-12-28T05:36:58;1.47;;;1.37;;
10315;SDS011;5203;48.976;8.306;2022-12-28T05:39:35;2.23;;;1.60;;
10315;SDS011;5203;48.976;8.306;2022-12-28T05:42:11;2.70;;;1.30;;
10315;SDS011;5203;48.976;8.306;2022-12-28T05:44:52;2.60;;;1.57;;
10315;SDS011;5203;48.976;8.306;2022-12-28T05:47:24;1.50;;;1.40;;
10315;SDS011;5203;48.976;8.306;2022-12-28T05:50:00;1.80;;;1.37;;
10315;SDS011;5203;48.976;8.306;2022-12-28T05:52:28;2.50;;;1.70;;
10315;SDS011;5203;48.976;8.306;2022-12-28T05:55:01;2.70;;;1.70;;
10315;SDS011;5203;48.976;8.306;2022-12-28T05:57:31;1.93;;;1.40;;
10315;SDS011;5203;48.976;8.306;2022-12-28T06:00:13;10.47;;;9.50;;
10315;SDS011;5203;48.976;8.306;2022-12-28T06:03:00;1.90;;;1.63;;
10315;SDS011;5203;48.976;8.306;2022-12-28T06:05:58;1.60;;;1.50;;
10315;SDS011;5203;48.976;8.306;2022-12-28T06:11:29;1.60;;;1.30;;
10315;SDS011;5203;48.976;8.306;2022-12-28T06:13:59;1.97;;;1.70;;
10315;SDS011;5203;48.976;8.306;2022-12-28T06:16:49;1.37;;;1.27;;
10315;SDS011;5203;48.976;8.306;2022-12-28T06:19:18;2.50;;;1.50;;
10315;SDS011;5203;48.976;8.306;2022-12-28T06:21:45;1.50;;;1.40;;
10315;SDS011;5203;48.976;8.306;2022-12-28T06:24:14;1.77;;;1.50;;
10315;SDS011;5203;48.976;8.306;2022-12-28T06:26:43;4.40;;;1.50;;
10315;SDS011;5203;48.976;8.306;2022-12-28T06:29:09;2.30;;;1.43;;
10315;SDS011;5203;48.976;8.306;2022-12-28T06:31:45;1.40;;;1.30;;
10315;SDS011;5203;48.976;8.306;2022-12-28T06:37:19;1.60;;;1.50;;
10315;SDS011;5203;48.976;8.306;2022-12-28T06:39:49;1.73;;;1.50;;
10315;SDS011;5203;48.976;8.306;2022-12-28T06:42:19;2.00;;;1.80;;
10315;SDS011;5203;48.976;8.306;2022-12-28T06:44:57;1.77;;;1.60;;
10315;SDS011;5203;48.976;8.306;2022-12-28T06:47:26;1.83;;;1.60;;
10315;SDS011;5203;48.976;8.306;2022-12-28T06:50:24;1.70;;;1.60;;
10315;SDS011;5203;48.976;8.306;2022-12-28T06:53:00;1.57;;;1.47;;
10315;SDS011;5203;48.976;8.306;2022-12-28T06:55:37;3.00;;;1.83;;
10315;SDS011;5203;48.976;8.306;2022-12-28T06:58:10;2.30;;;1.70;;
10315;SDS011;5203;48.976;8.306;2022-12-28T07:00:45;3.43;;;1.90;;
10315;SDS011;5203;48.976;8.306;2022-12-28T07:03:17;2.00;;;1.70;;
10315;SDS011;5203;48.976;8.306;2022-12-28T07:09:03;3.97;;;1.83;;
10315;SDS011;5203;48.976;8.306;2022-12-28T07:11:39;1.60;;;1.50;;
10315;SDS011;5203;48.976;8.306;2022-12-28T07:14:05;3.43;;;1.73;;
10315;SDS011;5203;48.976;8.306;2022-12-28T07:16:41;1.70;;;1.60;;
10315;SDS011;5203;48.976;8.306;2022-12-28T07:19:12;2.17;;;1.60;;
10315;SDS011;5203;48.976;8.306;2022-12-28T07:21:42;1.43;;;1.33;;
10315;SDS011;5203;48.976;8.306;2022-12-28T07:24:08;1.57;;;1.47;;
10315;SDS011;5203;48.976;8.306;2022-12-28T07:29:53;2.53;;;1.77;;
10315;SDS011;5203;48.976;8.306;2022-12-28T07:32:34;2.63;;;1.83;;
10315;SDS011;5203;48.976;8.306;2022-12-28T07:35:01;3.43;;;1.70;;
10315;SDS011;5203;48.976;8.306;2022-12-28T07:37:36;2.53;;;1.70;;
10315;SDS011;5203;48.976;8.306;2022-12-28T07:40:17;1.70;;;1.60;;
10315;SDS011;5203;48.976;8.306;2022-12-28T07:42:49;1.60;;;1.50;;
10315;SDS011;5203;48.976;8.306;2022-12-28T07:45:30;1.97;;;1.47;;
10315;SDS011;5203;48.976;8.306;2022-12-28T07:48:17;2.43;;;1.63;;
10315;SDS011;5203;48.976;8.306;2022-12-28T07:50:48;3.00;;;1.70;;
10315;SDS011;5203;48.976;8.306;2022-12-28T07:53:22;3.03;;;1.73;;
10315;SDS011;5203;48.976;8.306;2022-12-28T07:56:32;2.40;;;1.80;;
10315;SDS011;5203;48.976;8.306;2022-12-28T07:59:16;1.50;;;1.40;;
10315;SDS011;5203;48.976;8.306;2022-12-28T08:01:45;2.10;;;1.50;;
10315;SDS011;5203;48.976;8.306;2022-12-28T08:04:35;2.93;;;1.70;;
10315;SDS011;5203;48.976;8.306;2022-12-28T08:07:18;3.13;;;1.80;;
10315;SDS011;5203;48.976;8.306;2022-12-28T08:10:07;2.40;;;1.77;;
10315;SDS011;5203;48.976;8.306;2022-12-28T08:12:39;5.67;;;1.60;;
10315;SDS011;5203;48.976;8.306;2022-12-28T08:15:07;1.70;;;1.60;;
10315;SDS011;5203;48.976;8.306;2022-12-28T08:17:45;2.47;;;1.57;;
10315;SDS011;5203;48.976;8.306;2022-12-28T08:23:22;2.13;;;1.80;;
10315;SDS011;5203;48.976;8.306;2022-12-28T08:25:51;1.73;;;1.50;;
10315;SDS011;5203;48.976;8.306;2022-12-28T08:28:17;3.17;;;1.70;;
10315;SDS011;5203;48.976;8.306;2022-12-28T08:30:43;2.17;;;1.70;;
10315;SDS011;5203;48.976;8.306;2022-12-28T08:33:09;1.33;;;1.30;;
10315;SDS011;5203;48.976;8.306;2022-12-28T08:35:41;2.37;;;1.80;;
10315;SDS011;5203;48.976;8.306;2022-12-28T08:38:07;2.03;;;1.73;;
10315;SDS011;5203;48.976;8.306;2022-12-28T08:40:33;2.50;;;1.70;;
10315;SDS011;5203;48.976;8.306;2022-12-28T08:43:00;1.57;;;1.43;;
10315;SDS011;5203;48.976;8.306;2022-12-28T08:45:29;1.87;;;1.70;;
10315;SDS011;5203;48.976;8.306;2022-12-28T08:47:58;2.63;;;1.80;;
10315;SDS011;5203;48.976;8.306;2022-12-28T08:50:27;1.73;;;1.63;;
10315;SDS011;5203;48.976;8.306;2022-12-28T08:52:53;1.97;;;1.70;;
10315;SDS011;5203;48.976;8.306;2022-12-28T08:55:21;2.30;;;1.70;;
10315;SDS011;5203;48.976;8.306;2022-12-28T08:57:47;2.43;;;1.63;;
10315;SDS011;5203;48.976;8.306;2022-12-28T09:00:16;2.80;;;2.00;;
10315;SDS011;5203;48.976;8.306;2022-12-28T09:02:49;4.57;;;1.60;;
10315;SDS011;5203;48.976;8.306;2022-12-28T09:05:20;1.63;;;1.53;;
10315;SDS011;5203;48.976;8.306;2022-12-28T09:07:57;2.10;;;1.77;;
10315;SDS011;5203;48.976;8.306;2022-12-28T09:10:27;3.73;;;1.90;;
10315;SDS011;5203;48.976;8.306;2022-12-28T09:12:56;2.00;;;1.80;;
10315;SDS011;5203;48.976;8.306;2022-12-28T09:15:24;2.33;;;1.70;;
10315;SDS011;5203;48.976;8.306;2022-12-28T09:17:55;2.30;;;1.73;;
10315;SDS011;5203;48.976;8.306;2022-12-28T09:20:25;1.83;;;1.73;;
10315;SDS011;5203;48.976;8.306;2022-12-28T09:22:54;1.90;;;1.70;;
10315;SDS011;5203;48.976;8.306;2022-12-28T09:25:23;1.93;;;1.80;;
10315;SDS011;5203;48.976;8.306;2022-12-28T09:27:49;2.03;;;1.70;;
10315;SDS011;5203;48.976;8.306;2022-12-28T09:30:28;2.03;;;1.77;;
10315;SDS011;5203;48.976;8.306;2022-12-28T09:32:54;2.00;;;1.80;;
10315;SDS011;5203;48.976;8.306;2022-12-28T09:35:44;1.83;;;1.73;;
10315;SDS011;5203;48.976;8.306;2022-12-28T09:38:13;1.93;;;1.80;;
10315;SDS011;5203;48.976;8.306;2022-12-28T09:40:44;2.33;;;1.70;;
10315;SDS011;5203;48.976;8.306;2022-12-28T09:43:13;1.80;;;1.70;;
10315;SDS011;5203;48.976;8.306;2022-12-28T09:45:45;1.80;;;1.70;;
10315;SDS011;5203;48.976;8.306;2022-12-28T09:48:15;2.30;;;1.70;;
10315;SDS011;5203;48.976;8.306;2022-12-28T09:50:49;2.97;;;1.90;;
10315;SDS011;5203;48.976;8.306;2022-12-28T09:58:56;1.80;;;1.70;;
10315;SDS011;5203;48.976;8.306;2022-12-28T10:01:28;1.80;;;1.70;;
10315;SDS011;5203;48.976;8.306;2022-12-28T10:03:54;2.10;;;1.90;;
10315;SDS011;5203;48.976;8.306;2022-12-28T10:06:30;1.77;;;1.60;;
10315;SDS011;5203;48.976;8.306;2022-12-28T10:09:11;2.20;;;2.00;;
10315;SDS011;5203;48.976;8.306;2022-12-28T10:11:44;2.10;;;1.90;;
10315;SDS011;5203;48.976;8.306;2022-12-28T10:14:26;1.73;;;1.63;;
10315;SDS011;5203;48.976;8.306;2022-12-28T10:16:59;2.03;;;1.87;;
10315;SDS011;5203;48.976;8.306;2022-12-28T10:19:32;1.53;;;1.43;;
10315;SDS011;5203;48.976;8.306;2022-12-28T10:21:59;1.93;;;1.80;;
10315;SDS011;5203;48.976;8.306;2022-12-28T10:24:27;2.03;;;1.70;;
10315;SDS011;5203;48.976;8.306;2022-12-28T10:26:55;2.03;;;1.50;;
10315;SDS011;5203;48.976;8.306;2022-12-28T10:29:22;1.70;;;1.60;;
10315;SDS011;5203;48.976;8.306;2022-12-28T10:34:24;2.03;;;1.50;;
10315;SDS011;5203;48.976;8.306;2022-12-28T10:36:50;2.53;;;1.70;;
10315;SDS011;5203;48.976;8.306;2022-12-28T10:39:24;1.77;;;1.67;;
10315;SDS011;5203;48.976;8.306;2022-12-28T10:41:53;2.70;;;1.50;;
10315;SDS011;5203;48.976;8.306;2022-12-28T10:44:30;1.80;;;1.70;;
10315;SDS011;5203;48.976;8.306;2022-12-28T10:46:59;2.83;;;1.60;;
10315;SDS011;5203;48.976;8.306;2022-12-28T10:49:30;2.03;;;1.70;;
10315;SDS011;5203;48.976;8.306;2022-12-28T10:54:35;2.43;;;1.70;;
10315;SDS011;5203;48.976;8.306;2022-12-28T10:57:28;1.80;;;1.70;;
10315;SDS011;5203;48.976;8.306;2022-12-28T11:00:58;1.90;;;1.80;;
10315;SDS011;5203;48.976;8.306;2022-12-28T11:03:20;2.93;;;1.90;;
10315;SDS011;5203;48.976;8.306;2022-12-28T11:09:40;3.10;;;1.83;;
10315;SDS011;5203;48.976;8.306;2022-12-28T11:12:24;1.83;;;1.73;;
10315;SDS011;5203;48.976;8.306;2022-12-28T11:21:17;2.27;;;1.77;;
10315;SDS011;5203;48.976;8.306;2022-12-28T11:24:24;2.10;;;1.90;;
10315;SDS011;5203;48.976;8.306;2022-12-28T11:31:20;1.67;;;1.57;;
10315;SDS011;5203;48.976;8.306;2022-12-28T11:37:38;2.67;;;1.90;;
10315;SDS011;5203;48.976;8.306;2022-12-28T11:43:59;1.70;;;1.60;;
10315;SDS011;5203;48.976;8.306;2022-12-28T11:49:33;2.60;;;1.60;;
10315;SDS011;5203;48.976;8.306;2022-12-28T12:02:55;1.90;;;1.73;;
10315;SDS011;5203;48.976;8.306;2022-12-28T12:13:46;4.10;;;1.90;;
10315;SDS011;5203;48.976;8.306;2022-12-28T12:16:28;1.93;;;1.80;;
10315;SDS011;5203;48.976;8.306;2022-12-28T12:21:58;3.60;;;3.03;;
10315;SDS011;5203;48.976;8.306;2022-12-28T12:24:44;5.00;;;4.03;;
10315;SDS011;5203;48.976;8.306;2022-12-28T12:27:40;2.47;;;2.10;;
10315;SDS011;5203;48.976;8.306;2022-12-28T12:30:12;6.70;;;6.00;;
10315;SDS011;5203;48.976;8.306;2022-12-28T12:32:44;2.40;;;2.20;;
10315;SDS011;5203;48.976;8.306;2022-12-28T12:35:23;5.60;;;3.07;;
10315;SDS011;5203;48.976;8.306;2022-12-28T12:54:20;2.77;;;1.97;;
10315;SDS011;5203;48.976;8.306;2022-12-28T12:57:11;2.27;;;2.07;;
10315;SDS011;5203;48.976;8.306;2022-12-28T13:00:02;2.03;;;1.83;;
10315;SDS011;5203;48.976;8.306;2022-12-28T13:05:32;2.13;;;1.90;;
10315;SDS011;5203;48.976;8.306;2022-12-28T13:08:03;2.30;;;1.70;;
10315;SDS011;5203;48.976;8.306;2022-12-28T13:10:33;1.87;;;1.73;;
10315;SDS011;5203;48.976;8.306;2022-12-28T13:13:01;2.00;;;1.80;;
10315;SDS011;5203;48.976;8.306;2022-12-28T13:15:28;1.70;;;1.60;;
10315;SDS011;5203;48.976;8.306;2022-12-28T13:18:05;2.37;;;1.67;;
10315;SDS011;5203;48.976;8.306;2022-12-28T13:20:39;3.27;;;1.70;;
10315;SDS011;5203;48.976;8.306;2022-12-28T13:23:14;2.77;;;2.57;;
10315;SDS011;5203;48.976;8.306;2022-12-28T13:25:43;2.57;;;1.77;;
10315;SDS011;5203;48.976;8.306;2022-12-28T13:28:17;2.37;;;1.80;;
10315;SDS011;5203;48.976;8.306;2022-12-28T13:31:08;1.70;;;1.60;;
10315;SDS011;5203;48.976;8.306;2022-12-28T13:33:52;1.70;;;1.60;;
10315;SDS011;5203;48.976;8.306;2022-12-28T13:36:22;2.57;;;1.57;;
10315;SDS011;5203;48.976;8.306;2022-12-28T13:38:58;1.83;;;1.73;;
10315;SDS011;5203;48.976;8.306;2022-12-28T13:41:28;1.80;;;1.70;;
10315;SDS011;5203;48.976;8.306;2022-12-28T13:46:46;3.53;;;2.00;;
10315;SDS011;5203;48.976;8.306;2022-12-28T13:49:19;1.80;;;1.60;;
10315;SDS011;5203;48.976;8.306;2022-12-28T13:51:46;2.07;;;1.50;;
10315;SDS011;5203;48.976;8.306;2022-12-28T13:54:14;1.90;;;1.80;;
10315;SDS011;5203;48.976;8.306;2022-12-28T13:56:40;2.57;;;1.70;;
10315;SDS011;5203;48.976;8.306;2022-12-28T13:59:08;1.63;;;1.53;;
10315;SDS011;5203;48.976;8.306;2022-12-28T14:01:41;1.70;;;1.60;;
10315;SDS011;5203;48.976;8.306;2022-12-28T14:04:10;2.93;;;1.80;;
10315;SDS011;5203;48.976;8.306;2022-12-28T14:06:40;2.27;;;1.83;;
10315;SDS011;5203;48.976;8.306;2022-12-28T14:09:10;1.70;;;1.60;;
10315;SDS011;5203;48.976;8.306;2022-12-28T14:11:39;2.27;;;2.00;;
10315;SDS011;5203;48.976;8.306;2022-12-28T14:14:06;2.37;;;1.80;;
10315;SDS011;5203;48.976;8.306;2022-12-28T14:16:33;2.13;;;2.03;;
10315;SDS011;5203;48.976;8.306;2022-12-28T14:19:00;2.03;;;1.93;;
10315;SDS011;5203;48.976;8.306;2022-12-28T14:21:31;1.83;;;1.70;;
10315;SDS011;5203;48.976;8.306;2022-12-28T14:24:08;2.03;;;1.83;;
10315;SDS011;5203;48.976;8.306;2022-12-28T14:26:35;2.00;;;1.90;;
10315;SDS011;5203;48.976;8.306;2022-12-28T14:29:08;2.63;;;2.07;;
10315;SDS011;5203;48.976;8.306;2022-12-28T14:31:37;1.93;;;1.73;;
10315;SDS011;5203;48.976;8.306;2022-12-28T14:34:04;2.43;;;1.83;;
10315;SDS011;5203;48.976;8.306;2022-12-28T14:36:46;1.80;;;1.70;;
10315;SDS011;5203;48.976;8.306;2022-12-28T14:39:21;3.23;;;1.70;;
10315;SDS011;5203;48.976;8.306;2022-12-28T14:41:54;1.83;;;1.70;;
10315;SDS011;5203;48.976;8.306;2022-12-28T14:44:31;1.90;;;1.80;;
10315;SDS011;5203;48.976;8.306;2022-12-28T14:47:00;1.90;;;1.80;;
10315;SDS011;5203;48.976;8.306;2022-12-28T14:54:33;1.80;;;1.70;;
10315;SDS011;5203;48.976;8.306;2022-12-28T15:02:47;1.70;;;1.60;;
10315;SDS011;5203;48.976;8.306;2022-12-28T15:07:57;1.70;;;1.60;;
10315;SDS011;5203;48.976;8.306;2022-12-28T15:10:22;3.20;;;2.00;;
10315;SDS011;5203;48.976;8.306;2022-12-28T15:12:48;1.60;;;1.50;;
10315;SDS011;5203;48.976;8.306;2022-12-28T15:15:14;2.43;;;2.00;;
10315;SDS011;5203;48.976;8.306;2022-12-28T15:17:40;1.97;;;1.70;;
10315;SDS011;5203;48.976;8.306;2022-12-28T15:20:05;1.90;;;1.80;;
10315;SDS011;5203;48.976;8.306;2022-12-28T15:22:31;3.27;;;1.90;;
10315;SDS011;5203;48.976;8.306;2022-12-28T15:24:57;1.70;;;1.60;;
10315;SDS011;5203;48.976;8.306;2022-12-28T15:27:23;3.10;;;1.90;;
10315;SDS011;5203;48.976;8.306;2022-12-28T15:29:49;2.30;;;2.10;;
10315;SDS011;5203;48.976;8.306;2022-12-28T15:32:14;2.23;;;2.07;;
10315;SDS011;5203;48.976;8.306;2022-12-28T15:34:40;3.07;;;2.00;;
10315;SDS011;5203;48.976;8.306;2022-12-28T15:37:06;2.00;;;1.90;;
10315;SDS011;5203;48.976;8.306;2022-12-28T15:39:31;2.37;;;2.10;;
10315;SDS011;5203;48.976;8.306;2022-12-28T15:41:57;2.30;;;1.97;;
10315;SDS011;5203;48.976;8.306;2022-12-28T15:44:22;2.20;;;2.00;;
10315;SDS011;5203;48.976;8.306;2022-12-28T15:46:48;2.90;;;2.07;;
10315;SDS011;5203;48.976;8.306;2022-12-28T15:49:14;2.40;;;2.17;;
10315;SDS011;5203;48.976;8.306;2022-12-28T15:51:41;2.33;;;2.10;;
10315;SDS011;5203;48.976;8.306;2022-12-28T15:54:08;2.20;;;2.00;;
10315;SDS011;5203;48.976;8.306;2022-12-28T15:56:35;2.17;;;2.03;;
10315;SDS011;5203;48.976;8.306;2022-12-28T15:59:03;2.20;;;2.00;;
10315;SDS011;5203;48.976;8.306;2022-12-28T16:01:30;1.90;;;1.80;;
10315;SDS011;5203;48.976;8.306;2022-12-28T16:03:58;2.43;;;1.90;;
10315;SDS011;5203;48.976;8.306;2022-12-28T16:06:26;2.50;;;2.30;;
10315;SDS011;5203;48.976;8.306;2022-12-28T16:08:53;2.60;;;2.23;;
10315;SDS011;5203;48.976;8.306;2022-12-28T16:11:20;3.93;;;2.50;;
10315;SDS011;5203;48.976;8.306;2022-12-28T16:13:50;2.50;;;2.30;;
10315;SDS011;5203;48.976;8.306;2022-12-28T16:16:20;2.40;;;2.20;;
10315;SDS011;5203;48.976;8.306;2022-12-28T16:18:52;3.23;;;2.00;;
10315;SDS011;5203;48.976;8.306;2022-12-28T16:21:18;5.23;;;2.50;;
10315;SDS011;5203;48.976;8.306;2022-12-28T16:23:44;2.80;;;2.40;;
10315;SDS011;5203;48.976;8.306;2022-12-28T16:26:10;2.40;;;2.17;;
10315;SDS011;5203;48.976;8.306;2022-12-28T16:28:37;2.20;;;2.10;;
10315;SDS011;5203;48.976;8.306;2022-12-28T16:31:03;2.63;;;2.27;;
10315;SDS011;5203;48.976;8.306;2022-12-28T16:33:30;2.47;;;2.10;;
10315;SDS011;5203;48.976;8.306;2022-12-28T16:35:56;3.00;;;2.30;;
10315;SDS011;5203;48.976;8.306;2022-12-28T16:38:22;2.40;;;2.20;;
10315;SDS011;5203;48.976;8.306;2022-12-28T16:40:50;2.47;;;2.20;;
10315;SDS011;5203;48.976;8.306;2022-12-28T16:43:16;2.90;;;2.67;;
10315;SDS011;5203;48.976;8.306;2022-12-28T16:45:43;2.40;;;2.20;;
10315;SDS011;5203;48.976;8.306;2022-12-28T16:48:10;2.87;;;2.67;;
10315;SDS011;5203;48.976;8.306;2022-12-28T16:50:38;2.73;;;2.23;;
10315;SDS011;5203;48.976;8.306;2022-12-28T16:53:04;3.60;;;2.30;;
10315;SDS011;5203;48.976;8.306;2022-12-28T16:55:32;2.40;;;2.20;;
10315;SDS011;5203;48.976;8.306;2022-12-28T16:58:06;2.87;;;2.30;;
10315;SDS011;5203;48.976;8.306;2022-12-28T17:00:32;4.90;;;2.63;;
10315;SDS011;5203;48.976;8.306;2022-12-28T17:02:58;2.83;;;2.23;;
10315;SDS011;5203;48.976;8.306;2022-12-28T17:05:24;4.13;;;2.30;;
10315;SDS011;5203;48.976;8.306;2022-12-28T17:07:49;2.57;;;2.37;;
10315;SDS011;5203;48.976;8.306;2022-12-28T17:10:15;2.37;;;2.17;;
10315;SDS011;5203;48.976;8.306;2022-12-28T17:12:42;2.93;;;2.50;;
10315;SDS011;5203;48.976;8.306;2022-12-28T17:15:08;2.30;;;2.13;;
10315;SDS011;5203;48.976;8.306;2022-12-28T17:17:34;2.20;;;2.00;;
10315;SDS011;5203;48.976;8.306;2022-12-28T17:19:59;2.50;;;2.30;;
10315;SDS011;5203;48.976;8.306;2022-12-28T17:22:25;2.10;;;2.00;;
10315;SDS011;5203;48.976;8.306;2022-12-28T17:24:51;2.30;;;2.10;;
10315;SDS011;5203;48.976;8.306;2022-12-28T17:27:17;2.47;;;2.27;;
10315;SDS011;5203;48.976;8.306;2022-12-28T17:29:43;3.80;;;2.60;;
10315;SDS011;5203;48.976;8.306;2022-12-28T17:32:09;2.23;;;2.10;;
10315;SDS011;5203;48.976;8.306;2022-12-28T17:34:35;2.50;;;2.30;;
10315;SDS011;5203;48.976;8.306;2022-12-28T17:37:01;4.03;;;2.50;;
10315;SDS011;5203;48.976;8.306;2022-12-28T17:39:27;2.60;;;2.40;;
10315;SDS011;5203;48.976;8.306;2022-12-28T17:41:53;2.50;;;2.30;;
10315;SDS011;5203;48.976;8.306;2022-12-28T17:44:19;2.10;;;2.00;;
10315;SDS011;5203;48.976;8.306;2022-12-28T17:46:44;2.40;;;2.20;;
10315;SDS011;5203;48.976;8.306;2022-12-28T17:49:11;3.03;;;2.20;;
10315;SDS011;5203;48.976;8.306;2022-12-28T17:51:38;2.20;;;2.10;;
10315;SDS011;5203;48.976;8.306;2022-12-28T17:54:11;2.13;;;2.00;;
10315;SDS011;5203;48.976;8.306;2022-12-28T17:56:38;2.57;;;2.10;;
10315;SDS011;5203;48.976;8.306;2022-12-28T17:59:04;2.53;;;2.20;;
10315;SDS011;5203;48.976;8.306;2022-12-28T18:01:30;2.70;;;2.50;;
10315;SDS011;5203;48.976;8.306;2022-12-28T18:03:56;4.43;;;2.10;;
10315;SDS011;5203;48.976;8.306;2022-12-28T18:06:22;2.63;;;2.23;;
10315;SDS011;5203;48.976;8.306;2022-12-28T18:08:48;2.30;;;2.10;;